createdAt,value
2018-01-11T00:00:52.086Z,100778.64
2018-01-11T00:03:27.635Z,100787.13
2018-01-11T00:06:02.602Z,100784.12
2018-01-11T00:08:37.391Z,100787.19
2018-01-11T00:11:11.811Z,100793.63
2018-01-11T00:13:47.388Z,100793.31
2018-01-11T00:16:21.791Z,100799.53
2018-01-11T00:18:56.428Z,100800.55
2018-01-11T00:21:30.928Z,100796.09
2018-01-11T00:24:06.315Z,100801.03
2018-01-11T00:26:41.338Z,100796.28
2018-01-11T00:29:16.503Z,100793.48
2018-01-11T00:31:51.734Z,100793.82
2018-01-11T00:34:26.927Z,100792.75
2018-01-11T00:37:01.119Z,100785.09
2018-01-11T00:39:35.672Z,100787.02
2018-01-11T00:42:10.615Z,100788.01
2018-01-11T00:44:45.380Z,100787.66
2018-01-11T00:47:20.903Z,100792.64
2018-01-11T00:49:56.062Z,100793.08
2018-01-11T00:52:30.963Z,100800.84
2018-01-11T00:55:05.597Z,100798.08
2018-01-11T00:57:40.763Z,100798.90
2018-01-11T01:00:15.908Z,100803.83
2018-01-11T01:02:50.470Z,100804.34
2018-01-11T01:05:25.744Z,100803.05
2018-01-11T01:08:00.998Z,100803.45
2018-01-11T01:10:35.600Z,100799.30
2018-01-11T01:13:09.955Z,100804.45
2018-01-11T01:15:44.776Z,100804.75
2018-01-11T01:18:19.738Z,100799.77
2018-01-11T01:20:55.010Z,100796.56
2018-01-11T01:23:29.762Z,100800.91
2018-01-11T01:26:04.748Z,100803.35
2018-01-11T01:28:40.164Z,100804.58
2018-01-11T01:31:16.060Z,100814.55
2018-01-11T01:33:51.422Z,100807.41
2018-01-11T01:36:26.899Z,100822.55
2018-01-11T01:39:02.064Z,100816.44
2018-01-11T01:41:36.302Z,100826.68
2018-01-11T01:44:10.890Z,100826.43
2018-01-11T01:46:46.084Z,100833.05
2018-01-11T01:49:20.675Z,100835.67
2018-01-11T01:51:55.891Z,100833.10
2018-01-11T01:54:30.579Z,100835.63
2018-01-11T01:57:05.088Z,100836.47
2018-01-11T01:59:40.164Z,100845.70
2018-01-11T02:02:16.073Z,100840.42
2018-01-11T02:04:51.042Z,100849.92
2018-01-11T02:07:26.511Z,100845.70
2018-01-11T02:10:01.693Z,100853.11
2018-01-11T02:12:36.938Z,100851.52
2018-01-11T02:15:11.403Z,100861.05
2018-01-11T02:17:46.100Z,100856.79
2018-01-11T02:20:21.683Z,100848.76
2018-01-11T02:22:57.071Z,100852.71
2018-01-11T02:25:32.438Z,100859.33
2018-01-11T02:28:07.125Z,100859.67
2018-01-11T02:30:42.187Z,100858.13
2018-01-11T02:33:17.496Z,100851.83
2018-01-11T02:35:52.959Z,100858.62
2018-01-11T02:38:28.416Z,100859.25
2018-01-11T02:41:03.192Z,100852.14
2018-01-11T02:43:38.450Z,100854.85
2018-01-11T02:46:13.659Z,100861.11
2018-01-11T02:48:48.256Z,100861.59
2018-01-11T02:51:23.431Z,100859.91
2018-01-11T02:53:58.324Z,100852.19
2018-01-11T02:56:33.990Z,100848.77
2018-01-11T02:59:09.044Z,100853.92
2018-01-11T03:01:43.630Z,100857.20
2018-01-11T03:04:18.455Z,100860.45
2018-01-11T03:06:52.827Z,100866.17
2018-01-11T03:09:28.515Z,100858.80
2018-01-11T03:12:03.412Z,100864.17
2018-01-11T03:14:38.672Z,100862.66
2018-01-11T03:17:13.536Z,100862.66
2018-01-11T03:19:48.523Z,100864.55
2018-01-11T03:22:23.703Z,100872.00
2018-01-11T03:24:58.779Z,100869.78
2018-01-11T03:27:33.856Z,100874.80
2018-01-11T03:30:09.405Z,100867.58
2018-01-11T03:32:44.683Z,100864.34
2018-01-11T03:35:19.635Z,100867.87
2018-01-11T03:37:54.847Z,100869.83
2018-01-11T03:40:29.743Z,100873.73
2018-01-11T03:43:04.767Z,100874.33
2018-01-11T03:45:39.159Z,100869.76
2018-01-11T03:48:13.532Z,100875.48
2018-01-11T03:50:48.559Z,100865.67
2018-01-11T03:53:23.719Z,100863.55
2018-01-11T03:55:58.430Z,100869.90
2018-01-11T03:58:33.268Z,100871.05
2018-01-11T04:01:08.420Z,100875.94
2018-01-11T04:03:43.627Z,100866.70
2018-01-11T04:06:18.713Z,100876.24
2018-01-11T04:08:53.882Z,100885.32
2018-01-11T04:11:29.486Z,100874.47
2018-01-11T04:14:04.552Z,100883.41
2018-01-11T04:16:40.442Z,100886.72
2018-01-11T04:19:14.840Z,100889.51
2018-01-11T04:21:50.444Z,100889.51
2018-01-11T04:24:25.714Z,100892.33
2018-01-11T04:27:00.720Z,100899.20
2018-01-11T04:29:35.724Z,100899.00
2018-01-11T04:32:10.529Z,100901.02
2018-01-11T04:34:45.346Z,100896.83
2018-01-11T04:37:20.899Z,100903.23
2018-01-11T04:39:55.919Z,100906.99
2018-01-11T04:42:30.703Z,100909.69
2018-01-11T04:45:05.763Z,100924.22
2018-01-11T04:47:40.496Z,100925.46
2018-01-11T04:50:16.915Z,100927.39
2018-01-11T04:52:51.650Z,100932.16
2018-01-11T04:55:26.903Z,100933.11
2018-01-11T04:58:01.374Z,100925.70
2018-01-11T05:00:41.944Z,100930.02
2018-01-11T05:03:17.071Z,100936.42
2018-01-11T05:05:52.592Z,100932.40
2018-01-11T05:08:28.059Z,100931.95
2018-01-11T05:11:02.651Z,100939.41
2018-01-11T05:13:37.586Z,100943.80
2018-01-11T05:16:12.844Z,100944.56
2018-01-11T05:18:47.250Z,100952.95
2018-01-11T05:21:21.867Z,100956.42
2018-01-11T05:23:56.937Z,100947.48
2018-01-11T05:26:32.132Z,100951.79
2018-01-11T05:29:07.710Z,100955.98
2018-01-11T05:31:42.583Z,100958.73
2018-01-11T05:34:17.031Z,100957.33
2018-01-11T05:36:52.020Z,100973.36
2018-01-11T05:39:26.455Z,100970.34
2018-01-11T05:42:00.828Z,100970.19
2018-01-11T05:44:36.079Z,100966.88
2018-01-11T05:47:11.649Z,100976.31
2018-01-11T05:49:46.758Z,100977.97
2018-01-11T05:52:22.032Z,100976.08
2018-01-11T05:54:57.026Z,100981.88
2018-01-11T05:57:31.994Z,100988.98
2018-01-11T06:00:06.926Z,100984.91
2018-01-11T06:02:42.117Z,100996.06
2018-01-11T06:05:17.172Z,100988.33
2018-01-11T06:07:52.312Z,100992.55
2018-01-11T06:10:27.051Z,101001.64
2018-01-11T06:13:01.720Z,101007.80
2018-01-11T06:15:36.511Z,101010.02
2018-01-11T06:18:12.178Z,101013.05
2018-01-11T06:20:47.076Z,101016.82
2018-01-11T06:23:21.739Z,101024.47
2018-01-11T06:25:56.849Z,101029.97
2018-01-11T06:28:32.183Z,101033.03
2018-01-11T06:31:07.236Z,101036.98
2018-01-11T06:33:41.848Z,101041.73
2018-01-11T06:36:17.083Z,101042.11
2018-01-11T06:38:51.971Z,101041.73
2018-01-11T06:41:26.896Z,101039.23
2018-01-11T06:44:01.797Z,101046.69
2018-01-11T06:46:36.854Z,101050.86
2018-01-11T06:49:11.230Z,101049.34
2018-01-11T06:51:45.886Z,101058.05
2018-01-11T06:54:21.172Z,101062.14
2018-01-11T06:56:56.175Z,101058.30
2018-01-11T06:59:31.030Z,101070.80
2018-01-11T07:02:05.730Z,101066.00
2018-01-11T07:04:40.735Z,101072.71
2018-01-11T07:07:15.144Z,101075.51
2018-01-11T07:09:49.883Z,101077.38
2018-01-11T07:12:25.117Z,101083.58
2018-01-11T07:14:59.509Z,101086.58
2018-01-11T07:17:34.504Z,101088.83
2018-01-11T07:20:09.984Z,101087.46
2018-01-11T07:22:44.747Z,101101.12
2018-01-11T07:25:19.848Z,101102.89
2018-01-11T07:27:55.085Z,101105.95
2018-01-11T07:30:30.668Z,101098.42
2018-01-11T07:33:05.356Z,101102.04
2018-01-11T07:35:40.264Z,101107.08
2018-01-11T07:38:15.594Z,101113.55
2018-01-11T07:40:51.004Z,101117.23
2018-01-11T07:43:26.361Z,101113.66
2018-01-11T07:46:00.938Z,101121.63
2018-01-11T07:48:36.220Z,101128.33
2018-01-11T07:51:11.144Z,101127.03
2018-01-11T07:53:45.907Z,101133.67
2018-01-11T07:56:21.067Z,101136.13
2018-01-11T07:58:56.203Z,101147.02
2018-01-11T08:01:31.391Z,101136.86
2018-01-11T08:04:06.933Z,101139.01
2018-01-11T08:06:41.958Z,101144.53
2018-01-11T08:09:17.335Z,101151.10
2018-01-11T08:11:52.053Z,101146.64
2018-01-11T08:14:27.222Z,101148.92
2018-01-11T08:17:02.108Z,101157.02
2018-01-11T08:19:37.281Z,101160.73
2018-01-11T08:22:12.109Z,101165.69
2018-01-11T08:24:47.236Z,101168.76
2018-01-11T08:27:22.531Z,101176.59
2018-01-11T08:29:57.255Z,101179.09
2018-01-11T08:32:32.355Z,101176.71
2018-01-11T08:35:07.444Z,101182.09
2018-01-11T08:37:42.102Z,101190.91
2018-01-11T08:40:17.488Z,101189.52
2018-01-11T08:42:52.754Z,101191.91
2018-01-11T08:45:28.407Z,101198.28
2018-01-11T08:48:03.384Z,101191.89
2018-01-11T08:50:38.116Z,101209.47
2018-01-11T08:53:12.483Z,101199.86
2018-01-11T08:55:47.551Z,101198.77
2018-01-11T08:58:22.598Z,101204.42
2018-01-11T09:00:57.470Z,101211.88
2018-01-11T09:03:32.497Z,101212.92
2018-01-11T09:06:07.175Z,101214.01
2018-01-11T09:08:42.087Z,101206.45
2018-01-11T09:11:17.571Z,101209.56
2018-01-11T09:13:52.652Z,101211.67
2018-01-11T09:16:28.203Z,101208.78
2018-01-11T09:19:03.576Z,101215.65
2018-01-11T09:21:38.591Z,101205.97
2018-01-11T09:24:13.251Z,101208.66
2018-01-11T09:26:48.328Z,101210.05
2018-01-11T09:29:23.493Z,101214.16
2018-01-11T09:31:58.581Z,101219.36
2018-01-11T09:34:33.660Z,101221.38
2018-01-11T09:37:08.668Z,101227.34
2018-01-11T09:39:43.422Z,101227.72
2018-01-11T09:42:18.387Z,101229.14
2018-01-11T09:44:53.521Z,101223.14
2018-01-11T09:47:28.167Z,101233.36
2018-01-11T09:50:03.046Z,101240.69
2018-01-11T09:52:38.229Z,101238.09
2018-01-11T09:55:13.542Z,101237.84
2018-01-11T09:57:48.602Z,101230.64
2018-01-11T10:00:23.332Z,101229.21
2018-01-11T10:02:58.522Z,101235.06
2018-01-11T10:05:33.310Z,101239.81
2018-01-11T10:08:07.721Z,101239.04
2018-01-11T10:10:42.628Z,101242.98
2018-01-11T10:13:17.683Z,101254.14
2018-01-11T10:15:52.056Z,101254.91
2018-01-11T10:18:26.720Z,101243.77
2018-01-11T10:21:01.684Z,101249.22
2018-01-11T10:23:36.846Z,101269.45
2018-01-11T10:26:11.441Z,101264.45
2018-01-11T10:28:46.433Z,101257.03
2018-01-11T10:31:21.700Z,101262.66
2018-01-11T10:33:56.508Z,101265.89
2018-01-11T10:36:31.635Z,101268.55
2018-01-11T10:39:06.439Z,101263.19
2018-01-11T10:41:41.735Z,101257.87
2018-01-11T10:44:17.745Z,101258.19
2018-01-11T10:46:52.365Z,101254.30
2018-01-11T10:49:27.663Z,101256.70
2018-01-11T10:52:02.747Z,101255.88
2018-01-11T10:54:37.194Z,101257.08
2018-01-11T10:57:12.476Z,101264.19
2018-01-11T10:59:47.673Z,101256.13
2018-01-11T11:02:28.192Z,101261.81
2018-01-11T11:05:02.874Z,101261.34
2018-01-11T11:07:38.427Z,101253.91
2018-01-11T11:10:13.815Z,101257.95
2018-01-11T11:12:48.760Z,101261.69
2018-01-11T11:15:23.536Z,101261.13
2018-01-11T11:17:58.612Z,101265.27
2018-01-11T11:20:33.470Z,101271.86
2018-01-11T11:23:08.539Z,101259.88
2018-01-11T11:25:42.902Z,101266.54
2018-01-11T11:28:17.896Z,101272.94
2018-01-11T11:30:53.126Z,101276.12
2018-01-11T11:33:28.020Z,101283.90
2018-01-11T11:36:03.256Z,101295.19
2018-01-11T11:38:38.507Z,101290.69
2018-01-11T11:41:13.557Z,101287.09
2018-01-11T11:43:48.520Z,101287.14
2018-01-11T11:46:23.779Z,101296.59
2018-01-11T11:48:58.274Z,101296.64
2018-01-11T11:51:33.816Z,101299.20
2018-01-11T11:54:08.927Z,101292.15
2018-01-11T11:56:43.712Z,101294.66
2018-01-11T11:59:18.508Z,101287.87
2018-01-11T12:01:52.934Z,101280.55
2018-01-11T12:04:27.876Z,101287.38
2018-01-11T12:07:03.198Z,101286.19
2018-01-11T12:09:37.843Z,101285.69
2018-01-11T12:12:12.658Z,101280.09
2018-01-11T12:14:47.840Z,101285.27
2018-01-11T12:17:22.486Z,101275.39
2018-01-11T12:19:57.871Z,101280.30
2018-01-11T12:22:32.895Z,101274.42
2018-01-11T12:25:07.642Z,101271.06
2018-01-11T12:27:42.134Z,101271.02
2018-01-11T12:30:17.934Z,101271.91
2018-01-11T12:32:52.803Z,101278.34
2018-01-11T12:35:27.664Z,101280.52
2018-01-11T12:38:02.922Z,101273.36
2018-01-11T12:40:38.153Z,101270.60
2018-01-11T12:43:12.682Z,101269.45
2018-01-11T12:45:47.874Z,101273.61
2018-01-11T12:48:22.251Z,101270.48
2018-01-11T12:50:56.945Z,101281.92
2018-01-11T12:53:31.624Z,101286.30
2018-01-11T12:56:06.739Z,101301.12
2018-01-11T12:58:41.138Z,101304.93
2018-01-11T13:01:17.679Z,101297.09
2018-01-11T13:03:52.703Z,101305.95
2018-01-11T13:06:28.004Z,101308.34
2018-01-11T13:09:02.509Z,101324.38
2018-01-11T13:11:38.297Z,101321.03
2018-01-11T13:14:12.989Z,101323.72
2018-01-11T13:16:48.715Z,101325.98
2018-01-11T13:19:24.014Z,101320.59
2018-01-11T13:21:59.595Z,101326.05
2018-01-11T13:24:35.056Z,101321.67
2018-01-11T13:27:10.236Z,101321.98
2018-01-11T13:29:44.650Z,101324.03
2018-01-11T13:32:19.151Z,101329.59
2018-01-11T13:34:54.237Z,101320.99
2018-01-11T13:37:29.416Z,101322.64
2018-01-11T13:40:03.685Z,101329.98
2018-01-11T13:42:38.076Z,101326.91
2018-01-11T13:45:13.407Z,101336.13
2018-01-11T13:47:47.844Z,101343.55
2018-01-11T13:50:23.168Z,101357.94
2018-01-11T13:52:58.243Z,101355.87
2018-01-11T13:55:32.931Z,101364.91
2018-01-11T13:58:08.128Z,101362.22
2018-01-11T14:00:43.342Z,101365.00
2018-01-11T14:03:18.270Z,101366.56
2018-01-11T14:05:52.946Z,101377.13
2018-01-11T14:08:28.527Z,101383.41
2018-01-11T14:11:03.996Z,101386.20
2018-01-11T14:13:38.753Z,101388.52
2018-01-11T14:16:14.050Z,101400.88
2018-01-11T14:18:48.069Z,101396.41
2018-01-11T14:21:23.147Z,101395.23
2018-01-11T14:23:57.946Z,101400.69
2018-01-11T14:26:33.293Z,101408.24
2018-01-11T14:29:08.293Z,101405.08
2018-01-11T14:31:43.488Z,101413.81
2018-01-11T14:34:18.416Z,101416.90
2018-01-11T14:36:53.222Z,101423.48
2018-01-11T14:39:28.533Z,101419.63
2018-01-11T14:42:02.939Z,101421.30
2018-01-11T14:44:38.455Z,101425.77
2018-01-11T14:47:13.652Z,101431.53
2018-01-11T14:49:48.453Z,101429.67
2018-01-11T14:52:23.193Z,101431.88
2018-01-11T14:54:58.272Z,101436.40
2018-01-11T14:57:32.962Z,101439.52
2018-01-11T15:00:08.088Z,101440.42
2018-01-11T15:02:43.224Z,101443.98
2018-01-11T15:05:18.506Z,101448.67
2018-01-11T15:07:54.132Z,101455.70
2018-01-11T15:10:29.359Z,101455.27
2018-01-11T15:13:05.094Z,101454.19
2018-01-11T15:15:40.195Z,101462.55
2018-01-11T15:18:15.241Z,101463.64
2018-01-11T15:20:50.346Z,101472.08
2018-01-11T15:23:25.026Z,101472.29
2018-01-11T15:26:00.402Z,101467.27
2018-01-11T15:28:35.121Z,101467.48
2018-01-11T15:31:10.043Z,101473.39
2018-01-11T15:33:45.141Z,101475.59
2018-01-11T15:36:19.948Z,101476.93
2018-01-11T15:38:54.732Z,101482.83
2018-01-11T15:41:29.632Z,101483.54
2018-01-11T15:44:04.159Z,101474.84
2018-01-11T15:46:38.558Z,101491.27
2018-01-11T15:49:14.150Z,101486.44
2018-01-11T15:51:48.356Z,101492.10
2018-01-11T15:54:23.906Z,101495.08
2018-01-11T15:56:59.166Z,101489.23
2018-01-11T15:59:35.277Z,101496.52
2018-01-11T16:02:10.074Z,101492.19
2018-01-11T16:04:45.378Z,101506.05
2018-01-11T16:07:20.467Z,101500.07
2018-01-11T16:09:55.654Z,101511.83
2018-01-11T16:12:30.613Z,101511.48
2018-01-11T16:15:05.376Z,101526.22
2018-01-11T16:17:40.427Z,101521.70
2018-01-11T16:20:15.028Z,101524.47
2018-01-11T16:22:49.540Z,101524.57
2018-01-11T16:25:24.488Z,101521.09
2018-01-11T16:27:59.708Z,101529.36
2018-01-11T16:30:35.589Z,101532.18
2018-01-11T16:33:10.655Z,101534.61
2018-01-11T16:35:46.038Z,101532.70
2018-01-11T16:38:21.412Z,101529.70
2018-01-11T16:40:56.494Z,101540.25
2018-01-11T16:43:30.879Z,101539.28
2018-01-11T16:46:05.355Z,101545.84
2018-01-11T16:48:39.886Z,101539.38
2018-01-11T16:51:15.384Z,101550.31
2018-01-11T16:53:50.582Z,101544.83
2018-01-11T16:56:25.558Z,101549.82
2018-01-11T16:59:00.523Z,101550.40
2018-01-11T17:01:35.743Z,101553.66
2018-01-11T17:04:10.916Z,101561.46
2018-01-11T17:06:46.085Z,101563.47
2018-01-11T17:09:20.648Z,101569.97
2018-01-11T17:11:55.715Z,101573.39
2018-01-11T17:14:30.880Z,101570.17
2018-01-11T17:17:05.990Z,101579.72
2018-01-11T17:19:40.780Z,101577.57
2018-01-11T17:22:15.439Z,101578.55
2018-01-11T17:24:50.066Z,101579.52
2018-01-11T17:27:25.274Z,101584.02
2018-01-11T17:30:00.208Z,101576.19
2018-01-11T17:32:35.058Z,101585.16
2018-01-11T17:35:10.624Z,101588.48
2018-01-11T17:37:45.253Z,101592.26
2018-01-11T17:40:20.815Z,101591.09
2018-01-11T17:42:55.491Z,101597.38
2018-01-11T17:45:29.931Z,101605.52
2018-01-11T17:48:05.456Z,101607.88
2018-01-11T17:50:40.335Z,101606.34
2018-01-11T17:53:15.807Z,101606.55
2018-01-11T17:55:50.932Z,101605.88
2018-01-11T17:58:25.717Z,101618.84
2018-01-11T18:01:00.318Z,101608.79
2018-01-11T18:03:35.104Z,101619.80
2018-01-11T18:06:09.740Z,101607.41
2018-01-11T18:08:44.556Z,101618.11
2018-01-11T18:11:20.011Z,101623.33
2018-01-11T18:13:55.622Z,101631.74
2018-01-11T18:16:30.785Z,101631.13
2018-01-11T18:19:05.620Z,101635.78
2018-01-11T18:21:40.900Z,101635.90
2018-01-11T18:24:15.624Z,101641.03
2018-01-11T18:26:50.696Z,101647.38
2018-01-11T18:29:25.798Z,101647.88
2018-01-11T18:32:01.038Z,101651.58
2018-01-11T18:34:36.488Z,101650.33
2018-01-11T18:37:11.375Z,101650.41
2018-01-11T18:39:46.676Z,101658.01
2018-01-11T18:42:22.643Z,101657.00
2018-01-11T18:44:57.656Z,101659.71
2018-01-11T18:47:33.315Z,101660.31
2018-01-11T18:50:08.328Z,101660.35
2018-01-11T18:52:43.394Z,101672.37
2018-01-11T18:55:18.995Z,101674.03
2018-01-11T18:57:54.540Z,101672.22
2018-01-11T19:00:29.711Z,101675.73
2018-01-11T19:03:04.670Z,101686.47
2018-01-11T19:05:39.066Z,101675.73
2018-01-11T19:08:14.140Z,101678.86
2018-01-11T19:10:49.044Z,101680.23
2018-01-11T19:13:24.014Z,101677.93
2018-01-11T19:15:58.797Z,101673.27
2018-01-11T19:18:33.723Z,101683.02
2018-01-11T19:21:08.668Z,101685.36
2018-01-11T19:23:44.020Z,101691.14
2018-01-11T19:26:19.333Z,101695.22
2018-01-11T19:28:53.839Z,101693.14
2018-01-11T19:31:28.602Z,101693.55
2018-01-11T19:34:03.707Z,101699.82
2018-01-11T19:36:38.603Z,101696.59
2018-01-11T19:39:13.814Z,101699.97
2018-01-11T19:41:49.028Z,101698.89
2018-01-11T19:44:23.218Z,101692.95
2018-01-11T19:46:58.009Z,101704.56
2018-01-11T19:49:33.134Z,101697.07
2018-01-11T19:52:07.877Z,101710.88
2018-01-11T19:54:42.248Z,101702.82
2018-01-11T19:57:16.787Z,101698.33
2018-01-11T19:59:51.278Z,101707.56
2018-01-11T20:02:26.072Z,101709.56
2018-01-11T20:05:01.064Z,101712.53
2018-01-11T20:07:36.331Z,101718.28
2018-01-11T20:10:11.186Z,101714.20
2018-01-11T20:12:46.659Z,101721.33
2018-01-11T20:15:21.360Z,101723.62
2018-01-11T20:17:55.898Z,101724.52
2018-01-11T20:20:31.084Z,101730.34
2018-01-11T20:23:06.256Z,101729.34
2018-01-11T20:25:40.919Z,101735.13
2018-01-11T20:28:15.706Z,101740.95
2018-01-11T20:30:50.858Z,101731.05
2018-01-11T20:33:25.562Z,101745.26
2018-01-11T20:36:00.332Z,101738.47
2018-01-11T20:38:35.945Z,101739.80
2018-01-11T20:41:11.175Z,101743.13
2018-01-11T20:43:45.864Z,101739.94
2018-01-11T20:46:21.141Z,101735.01
2018-01-11T20:48:55.799Z,101742.13
2018-01-11T20:51:31.178Z,101745.70
2018-01-11T20:54:06.411Z,101746.30
2018-01-11T20:56:42.048Z,101744.66
2018-01-11T20:59:16.427Z,101748.19
2018-01-11T21:01:51.523Z,101752.16
2018-01-11T21:04:26.192Z,101749.60
2018-01-11T21:07:01.367Z,101758.06
2018-01-11T21:09:37.367Z,101763.37
2018-01-11T21:12:12.426Z,101761.14
2018-01-11T21:14:46.974Z,101768.23
2018-01-11T21:17:22.054Z,101763.73
2018-01-11T21:19:57.162Z,101763.73
2018-01-11T21:22:32.278Z,101768.23
2018-01-11T21:25:07.276Z,101773.76
2018-01-11T21:27:42.213Z,101767.75
2018-01-11T21:30:16.645Z,101768.83
2018-01-11T21:32:52.138Z,101774.80
2018-01-11T21:35:27.366Z,101778.95
2018-01-11T21:38:02.919Z,101780.36
2018-01-11T21:40:37.294Z,101782.22
2018-01-11T21:43:12.148Z,101783.73
2018-01-11T21:45:47.263Z,101787.73
2018-01-11T21:48:22.189Z,101787.84
2018-01-11T21:50:56.563Z,101783.50
2018-01-11T21:53:31.394Z,101784.11
2018-01-11T21:56:06.043Z,101778.53
2018-01-11T21:58:41.551Z,101783.61
2018-01-11T22:01:17.699Z,101789.16
2018-01-11T22:03:52.470Z,101786.98
2018-01-11T22:06:27.470Z,101785.30
2018-01-11T22:09:02.175Z,101793.45
2018-01-11T22:11:36.652Z,101801.91
2018-01-11T22:14:11.170Z,101800.55
2018-01-11T22:16:46.242Z,101806.33
2018-01-11T22:19:21.357Z,101804.69
2018-01-11T22:21:56.299Z,101809.10
2018-01-11T22:24:31.472Z,101803.77
2018-01-11T22:27:06.358Z,101805.61
2018-01-11T22:29:40.706Z,101815.84
2018-01-11T22:32:15.222Z,101820.81
2018-01-11T22:34:50.699Z,101818.31
2018-01-11T22:37:25.938Z,101823.28
2018-01-11T22:40:00.531Z,101822.91
2018-01-11T22:42:35.495Z,101828.38
2018-01-11T22:45:10.626Z,101827.11
2018-01-11T22:47:46.154Z,101831.56
2018-01-11T22:50:21.583Z,101835.91
2018-01-11T22:52:57.180Z,101839.95
2018-01-11T22:55:31.971Z,101836.48
2018-01-11T22:58:06.322Z,101836.11
2018-01-11T23:00:40.780Z,101843.70
2018-01-11T23:03:15.579Z,101846.75
2018-01-11T23:05:50.259Z,101845.52
2018-01-11T23:08:25.182Z,101843.27
2018-01-11T23:11:00.274Z,101843.02
2018-01-11T23:13:35.464Z,101850.65
2018-01-11T23:16:10.622Z,101849.83
2018-01-11T23:18:45.004Z,101846.98
2018-01-11T23:21:20.496Z,101852.12
2018-01-11T23:23:55.687Z,101852.91
2018-01-11T23:26:30.599Z,101849.87
2018-01-11T23:29:04.959Z,101842.23
2018-01-11T23:31:40.284Z,101845.97
2018-01-11T23:34:15.667Z,101851.81
2018-01-11T23:36:50.338Z,101860.81
2018-01-11T23:39:25.625Z,101857.19
2018-01-11T23:42:00.421Z,101869.09
2018-01-11T23:44:35.660Z,101860.06
2018-01-11T23:47:11.268Z,101865.30
2018-01-11T23:49:46.116Z,101870.98
2018-01-11T23:52:20.639Z,101873.48
2018-01-11T23:54:55.347Z,101870.69
2018-01-11T23:57:31.007Z,101863.63
